sensor_id;sensor_type;location;lat;lon;timestamp;P1;durP1;ratioP1;P2;durP2;ratioP2
5900;SDS011;2976;49.764;9.796;2023-02-03T00:01:40;6.30;;;3.60;;
5900;SDS011;2976;49.764;9.796;2023-02-03T00:04:06;10.77;;;3.87;;
5900;SDS011;2976;49.764;9.796;2023-02-03T00:06:32;8.10;;;3.97;;
5900;SDS011;2976;49.764;9.796;2023-02-03T00:08:57;3.57;;;3.27;;
5900;SDS011;2976;49.764;9.796;2023-02-03T00:11:24;12.07;;;4.27;;
5900;SDS011;2976;49.764;9.796;2023-02-03T00:13:50;7.00;;;4.00;;
5900;SDS011;2976;49.764;9.796;2023-02-03T00:16:16;13.63;;;3.77;;
5900;SDS011;2976;49.764;9.796;2023-02-03T00:18:42;9.00;;;3.47;;
5900;SDS011;2976;49.764;9.796;2023-02-03T00:21:07;9.23;;;3.13;;
5900;SDS011;2976;49.764;9.796;2023-02-03T00:23:33;6.27;;;3.67;;
5900;SDS011;2976;49.764;9.796;2023-02-03T00:26:08;5.17;;;3.10;;
5900;SDS011;2976;49.764;9.796;2023-02-03T00:28:35;5.90;;;2.90;;
5900;SDS011;2976;49.764;9.796;2023-02-03T00:31:01;4.60;;;3.73;;
5900;SDS011;2976;49.764;9.796;2023-02-03T00:33:26;9.10;;;3.47;;
5900;SDS011;2976;49.764;9.796;2023-02-03T00:35:52;6.13;;;3.97;;
5900;SDS011;2976;49.764;9.796;2023-02-03T00:38:18;8.80;;;3.30;;
5900;SDS011;2976;49.764;9.796;2023-02-03T00:40:50;6.00;;;3.53;;
5900;SDS011;2976;49.764;9.796;2023-02-03T00:43:17;8.53;;;3.67;;
5900;SDS011;2976;49.764;9.796;2023-02-03T00:45:43;5.50;;;3.40;;
5900;SDS011;2976;49.764;9.796;2023-02-03T00:48:08;9.43;;;2.87;;
5900;SDS011;2976;49.764;9.796;2023-02-03T00:50:34;6.10;;;3.30;;
5900;SDS011;2976;49.764;9.796;2023-02-03T00:52:59;10.37;;;3.00;;
5900;SDS011;2976;49.764;9.796;2023-02-03T00:55:25;5.47;;;3.10;;
5900;SDS011;2976;49.764;9.796;2023-02-03T00:57:51;6.10;;;2.70;;
5900;SDS011;2976;49.764;9.796;2023-02-03T01:00:17;7.53;;;3.30;;
5900;SDS011;2976;49.764;9.796;2023-02-03T01:02:43;3.73;;;3.00;;
5900;SDS011;2976;49.764;9.796;2023-02-03T01:05:09;12.03;;;3.30;;
5900;SDS011;2976;49.764;9.796;2023-02-03T01:07:35;7.13;;;3.40;;
5900;SDS011;2976;49.764;9.796;2023-02-03T01:10:01;7.63;;;3.40;;
5900;SDS011;2976;49.764;9.796;2023-02-03T01:12:28;4.63;;;3.00;;
5900;SDS011;2976;49.764;9.796;2023-02-03T01:14:55;8.60;;;3.80;;
5900;SDS011;2976;49.764;9.796;2023-02-03T01:17:20;4.20;;;3.10;;
5900;SDS011;2976;49.764;9.796;2023-02-03T01:19:46;8.60;;;3.30;;
5900;SDS011;2976;49.764;9.796;2023-02-03T01:22:11;10.60;;;3.60;;
5900;SDS011;2976;49.764;9.796;2023-02-03T01:24:37;4.10;;;2.80;;
5900;SDS011;2976;49.764;9.796;2023-02-03T01:27:02;5.63;;;3.10;;
5900;SDS011;2976;49.764;9.796;2023-02-03T01:29:30;9.53;;;4.20;;
5900;SDS011;2976;49.764;9.796;2023-02-03T01:31:55;4.50;;;3.50;;
5900;SDS011;2976;49.764;9.796;2023-02-03T01:34:21;14.23;;;3.70;;
5900;SDS011;2976;49.764;9.796;2023-02-03T01:36:46;8.33;;;3.40;;
5900;SDS011;2976;49.764;9.796;2023-02-03T01:39:12;6.43;;;2.70;;
5900;SDS011;2976;49.764;9.796;2023-02-03T01:41:38;7.70;;;3.13;;
5900;SDS011;2976;49.764;9.796;2023-02-03T01:47:12;12.40;;;2.70;;
5900;SDS011;2976;49.764;9.796;2023-02-03T01:52:31;6.43;;;3.00;;
5900;SDS011;2976;49.764;9.796;2023-02-03T01:54:57;5.60;;;3.87;;
5900;SDS011;2976;49.764;9.796;2023-02-03T01:57:29;5.17;;;3.33;;
5900;SDS011;2976;49.764;9.796;2023-02-03T01:59:59;5.63;;;3.50;;
5900;SDS011;2976;49.764;9.796;2023-02-03T02:02:26;7.93;;;3.47;;
5900;SDS011;2976;49.764;9.796;2023-02-03T02:07:44;11.53;;;4.10;;
5900;SDS011;2976;49.764;9.796;2023-02-03T02:10:11;3.13;;;2.83;;
5900;SDS011;2976;49.764;9.796;2023-02-03T02:12:37;12.03;;;3.87;;
5900;SDS011;2976;49.764;9.796;2023-02-03T02:15:02;7.63;;;3.80;;
5900;SDS011;2976;49.764;9.796;2023-02-03T02:20:05;11.83;;;3.60;;
5900;SDS011;2976;49.764;9.796;2023-02-03T02:22:58;6.73;;;3.87;;
5900;SDS011;2976;49.764;9.796;2023-02-03T02:28:27;6.00;;;3.70;;
5900;SDS011;2976;49.764;9.796;2023-02-03T02:34:18;6.93;;;3.63;;
5900;SDS011;2976;49.764;9.796;2023-02-03T02:37:03;7.47;;;4.03;;
5900;SDS011;2976;49.764;9.796;2023-02-03T02:45:10;17.53;;;3.60;;
5900;SDS011;2976;49.764;9.796;2023-02-03T02:47:41;8.13;;;4.20;;
5900;SDS011;2976;49.764;9.796;2023-02-03T02:50:15;10.73;;;3.60;;
5900;SDS011;2976;49.764;9.796;2023-02-03T02:52:47;9.30;;;3.50;;
5900;SDS011;2976;49.764;9.796;2023-02-03T02:55:22;4.10;;;3.47;;
5900;SDS011;2976;49.764;9.796;2023-02-03T02:57:52;4.43;;;3.33;;
5900;SDS011;2976;49.764;9.796;2023-02-03T03:00:21;6.53;;;2.87;;
5900;SDS011;2976;49.764;9.796;2023-02-03T03:02:47;8.53;;;3.40;;
5900;SDS011;2976;49.764;9.796;2023-02-03T03:05:13;7.30;;;3.50;;
5900;SDS011;2976;49.764;9.796;2023-02-03T03:07:41;5.30;;;2.93;;
5900;SDS011;2976;49.764;9.796;2023-02-03T03:10:15;2.77;;;2.43;;
5900;SDS011;2976;49.764;9.796;2023-02-03T03:12:48;4.90;;;2.80;;
5900;SDS011;2976;49.764;9.796;2023-02-03T03:15:22;4.23;;;2.63;;
5900;SDS011;2976;49.764;9.796;2023-02-03T03:17:55;6.20;;;2.53;;
5900;SDS011;2976;49.764;9.796;2023-02-03T03:20:28;16.90;;;3.33;;
5900;SDS011;2976;49.764;9.796;2023-02-03T03:22:58;3.87;;;2.47;;
5900;SDS011;2976;49.764;9.796;2023-02-03T03:25:33;4.00;;;2.20;;
5900;SDS011;2976;49.764;9.796;2023-02-03T03:28:04;6.43;;;2.43;;
5900;SDS011;2976;49.764;9.796;2023-02-03T03:30:34;2.80;;;2.13;;
5900;SDS011;2976;49.764;9.796;2023-02-03T03:33:03;4.27;;;2.53;;
5900;SDS011;2976;49.764;9.796;2023-02-03T03:35:37;6.00;;;2.70;;
5900;SDS011;2976;49.764;9.796;2023-02-03T03:38:24;7.13;;;2.07;;
5900;SDS011;2976;49.764;9.796;2023-02-03T03:41:07;2.80;;;2.13;;
5900;SDS011;2976;49.764;9.796;2023-02-03T03:43:52;3.60;;;2.07;;
5900;SDS011;2976;49.764;9.796;2023-02-03T03:46:26;2.90;;;2.10;;
5900;SDS011;2976;49.764;9.796;2023-02-03T03:48:55;2.57;;;2.27;;
5900;SDS011;2976;49.764;9.796;2023-02-03T03:54:02;6.00;;;2.97;;
5900;SDS011;2976;49.764;9.796;2023-02-03T03:56:35;2.77;;;2.40;;
5900;SDS011;2976;49.764;9.796;2023-02-03T03:59:05;2.90;;;2.47;;
5900;SDS011;2976;49.764;9.796;2023-02-03T04:01:33;3.50;;;2.50;;
5900;SDS011;2976;49.764;9.796;2023-02-03T04:04:01;2.60;;;2.40;;
5900;SDS011;2976;49.764;9.796;2023-02-03T04:06:30;3.20;;;2.07;;
5900;SDS011;2976;49.764;9.796;2023-02-03T04:08:56;3.50;;;1.93;;
5900;SDS011;2976;49.764;9.796;2023-02-03T04:11:21;2.30;;;2.00;;
5900;SDS011;2976;49.764;9.796;2023-02-03T04:14:06;2.23;;;2.03;;
5900;SDS011;2976;49.764;9.796;2023-02-03T04:16:31;2.00;;;1.90;;
5900;SDS011;2976;49.764;9.796;2023-02-03T04:18:56;2.07;;;1.87;;
5900;SDS011;2976;49.764;9.796;2023-02-03T04:21:22;2.60;;;2.33;;
5900;SDS011;2976;49.764;9.796;2023-02-03T04:23:48;4.80;;;1.90;;
5900;SDS011;2976;49.764;9.796;2023-02-03T04:26:14;2.40;;;2.13;;
5900;SDS011;2976;49.764;9.796;2023-02-03T04:28:40;1.90;;;1.80;;
5900;SDS011;2976;49.764;9.796;2023-02-03T04:31:05;2.03;;;1.93;;
5900;SDS011;2976;49.764;9.796;2023-02-03T04:33:31;1.80;;;1.70;;
5900;SDS011;2976;49.764;9.796;2023-02-03T04:35:56;3.83;;;1.50;;
5900;SDS011;2976;49.764;9.796;2023-02-03T04:38:22;3.60;;;1.53;;
5900;SDS011;2976;49.764;9.796;2023-02-03T04:40:47;3.07;;;1.40;;
5900;SDS011;2976;49.764;9.796;2023-02-03T04:43:13;1.40;;;1.27;;
5900;SDS011;2976;49.764;9.796;2023-02-03T04:45:40;1.67;;;1.57;;
5900;SDS011;2976;49.764;9.796;2023-02-03T04:48:06;1.80;;;1.53;;
5900;SDS011;2976;49.764;9.796;2023-02-03T04:50:31;1.80;;;1.70;;
5900;SDS011;2976;49.764;9.796;2023-02-03T04:52:57;1.77;;;1.47;;
5900;SDS011;2976;49.764;9.796;2023-02-03T04:55:24;1.30;;;1.30;;
5900;SDS011;2976;49.764;9.796;2023-02-03T04:57:54;1.67;;;1.30;;
5900;SDS011;2976;49.764;9.796;2023-02-03T05:00:24;2.30;;;1.60;;
5900;SDS011;2976;49.764;9.796;2023-02-03T05:02:50;3.40;;;1.20;;
5900;SDS011;2976;49.764;9.796;2023-02-03T05:05:16;3.73;;;1.80;;
5900;SDS011;2976;49.764;9.796;2023-02-03T05:07:42;1.30;;;1.27;;
5900;SDS011;2976;49.764;9.796;2023-02-03T05:10:08;1.30;;;1.20;;
5900;SDS011;2976;49.764;9.796;2023-02-03T05:12:34;1.37;;;1.30;;
5900;SDS011;2976;49.764;9.796;2023-02-03T05:15:00;4.13;;;1.70;;
5900;SDS011;2976;49.764;9.796;2023-02-03T05:17:25;2.40;;;1.23;;
5900;SDS011;2976;49.764;9.796;2023-02-03T05:19:51;1.10;;;1.10;;
5900;SDS011;2976;49.764;9.796;2023-02-03T05:22:16;4.20;;;1.57;;
5900;SDS011;2976;49.764;9.796;2023-02-03T05:24:42;1.70;;;1.27;;
5900;SDS011;2976;49.764;9.796;2023-02-03T05:27:07;7.87;;;2.47;;
5900;SDS011;2976;49.764;9.796;2023-02-03T05:29:33;1.20;;;1.20;;
5900;SDS011;2976;49.764;9.796;2023-02-03T05:31:58;1.20;;;1.20;;
5900;SDS011;2976;49.764;9.796;2023-02-03T05:34:24;1.27;;;1.17;;
5900;SDS011;2976;49.764;9.796;2023-02-03T05:36:49;2.63;;;1.60;;
5900;SDS011;2976;49.764;9.796;2023-02-03T05:39:15;1.77;;;1.67;;
5900;SDS011;2976;49.764;9.796;2023-02-03T05:41:40;1.10;;;1.10;;
5900;SDS011;2976;49.764;9.796;2023-02-03T05:44:22;1.50;;;1.50;;
5900;SDS011;2976;49.764;9.796;2023-02-03T05:46:54;1.63;;;1.53;;
5900;SDS011;2976;49.764;9.796;2023-02-03T05:49:21;1.43;;;1.40;;
5900;SDS011;2976;49.764;9.796;2023-02-03T05:51:47;1.40;;;1.07;;
5900;SDS011;2976;49.764;9.796;2023-02-03T05:54:14;1.60;;;1.60;;
5900;SDS011;2976;49.764;9.796;2023-02-03T05:56:40;2.50;;;1.83;;
5900;SDS011;2976;49.764;9.796;2023-02-03T05:59:05;1.93;;;1.60;;
5900;SDS011;2976;49.764;9.796;2023-02-03T06:01:31;1.90;;;1.80;;
5900;SDS011;2976;49.764;9.796;2023-02-03T06:03:58;2.13;;;1.93;;
5900;SDS011;2976;49.764;9.796;2023-02-03T06:06:23;2.93;;;2.00;;
5900;SDS011;2976;49.764;9.796;2023-02-03T06:08:49;1.30;;;1.30;;
5900;SDS011;2976;49.764;9.796;2023-02-03T06:11:21;4.33;;;2.30;;
5900;SDS011;2976;49.764;9.796;2023-02-03T06:13:48;2.83;;;1.87;;
5900;SDS011;2976;49.764;9.796;2023-02-03T06:16:14;2.20;;;2.10;;
5900;SDS011;2976;49.764;9.796;2023-02-03T06:18:39;3.90;;;1.87;;
5900;SDS011;2976;49.764;9.796;2023-02-03T06:21:05;3.83;;;1.67;;
5900;SDS011;2976;49.764;9.796;2023-02-03T06:23:31;3.67;;;2.07;;
5900;SDS011;2976;49.764;9.796;2023-02-03T06:25:56;5.83;;;1.80;;
5900;SDS011;2976;49.764;9.796;2023-02-03T06:28:24;1.50;;;1.40;;
5900;SDS011;2976;49.764;9.796;2023-02-03T06:30:50;1.83;;;1.53;;
5900;SDS011;2976;49.764;9.796;2023-02-03T06:33:17;4.17;;;1.67;;
5900;SDS011;2976;49.764;9.796;2023-02-03T06:35:43;9.13;;;1.33;;
5900;SDS011;2976;49.764;9.796;2023-02-03T06:38:09;4.83;;;1.67;;
5900;SDS011;2976;49.764;9.796;2023-02-03T06:40:34;2.87;;;1.60;;
5900;SDS011;2976;49.764;9.796;2023-02-03T06:43:00;1.67;;;1.47;;
5900;SDS011;2976;49.764;9.796;2023-02-03T06:45:25;3.77;;;1.83;;
5900;SDS011;2976;49.764;9.796;2023-02-03T06:47:51;1.93;;;1.83;;
5900;SDS011;2976;49.764;9.796;2023-02-03T06:50:16;1.50;;;1.40;;
5900;SDS011;2976;49.764;9.796;2023-02-03T06:52:43;1.73;;;1.63;;
5900;SDS011;2976;49.764;9.796;2023-02-03T06:55:08;1.77;;;1.67;;
5900;SDS011;2976;49.764;9.796;2023-02-03T06:57:34;1.90;;;1.63;;
5900;SDS011;2976;49.764;9.796;2023-02-03T07:00:00;1.73;;;1.63;;
5900;SDS011;2976;49.764;9.796;2023-02-03T07:02:25;2.27;;;1.90;;
5900;SDS011;2976;49.764;9.796;2023-02-03T07:04:51;2.20;;;1.60;;
5900;SDS011;2976;49.764;9.796;2023-02-03T07:07:17;1.80;;;1.70;;
5900;SDS011;2976;49.764;9.796;2023-02-03T07:09:42;1.70;;;1.60;;
5900;SDS011;2976;49.764;9.796;2023-02-03T07:12:08;1.70;;;1.60;;
5900;SDS011;2976;49.764;9.796;2023-02-03T07:14:34;2.30;;;2.10;;
5900;SDS011;2976;49.764;9.796;2023-02-03T07:17:00;4.73;;;1.80;;
5900;SDS011;2976;49.764;9.796;2023-02-03T07:19:27;1.97;;;1.87;;
5900;SDS011;2976;49.764;9.796;2023-02-03T07:21:52;3.17;;;1.50;;
5900;SDS011;2976;49.764;9.796;2023-02-03T07:24:18;1.40;;;1.40;;
5900;SDS011;2976;49.764;9.796;2023-02-03T07:26:44;2.10;;;1.70;;
5900;SDS011;2976;49.764;9.796;2023-02-03T07:29:09;2.30;;;1.40;;
5900;SDS011;2976;49.764;9.796;2023-02-03T07:31:35;2.90;;;1.77;;
5900;SDS011;2976;49.764;9.796;2023-02-03T07:34:00;2.30;;;1.63;;
5900;SDS011;2976;49.764;9.796;2023-02-03T07:36:26;3.47;;;1.60;;
5900;SDS011;2976;49.764;9.796;2023-02-03T07:38:52;1.50;;;1.40;;
5900;SDS011;2976;49.764;9.796;2023-02-03T07:41:18;2.40;;;1.57;;
5900;SDS011;2976;49.764;9.796;2023-02-03T07:43:44;2.17;;;1.90;;
5900;SDS011;2976;49.764;9.796;2023-02-03T07:46:10;1.30;;;1.13;;
5900;SDS011;2976;49.764;9.796;2023-02-03T07:48:36;2.77;;;1.70;;
5900;SDS011;2976;49.764;9.796;2023-02-03T07:51:02;2.47;;;1.60;;
5900;SDS011;2976;49.764;9.796;2023-02-03T07:53:27;1.87;;;1.60;;
5900;SDS011;2976;49.764;9.796;2023-02-03T07:55:53;2.30;;;2.10;;
5900;SDS011;2976;49.764;9.796;2023-02-03T07:58:19;1.93;;;1.83;;
5900;SDS011;2976;49.764;9.796;2023-02-03T08:00:44;1.67;;;1.57;;
5900;SDS011;2976;49.764;9.796;2023-02-03T08:03:10;2.40;;;2.20;;
5900;SDS011;2976;49.764;9.796;2023-02-03T08:05:35;1.87;;;1.73;;
5900;SDS011;2976;49.764;9.796;2023-02-03T08:08:01;3.43;;;1.80;;
5900;SDS011;2976;49.764;9.796;2023-02-03T08:10:26;2.40;;;1.50;;
5900;SDS011;2976;49.764;9.796;2023-02-03T08:12:52;2.30;;;1.40;;
5900;SDS011;2976;49.764;9.796;2023-02-03T08:15:19;4.53;;;2.23;;
5900;SDS011;2976;49.764;9.796;2023-02-03T08:17:45;2.40;;;2.00;;
5900;SDS011;2976;49.764;9.796;2023-02-03T08:20:12;3.03;;;1.87;;
5900;SDS011;2976;49.764;9.796;2023-02-03T08:22:38;1.20;;;1.10;;
5900;SDS011;2976;49.764;9.796;2023-02-03T08:25:03;3.20;;;1.83;;
5900;SDS011;2976;49.764;9.796;2023-02-03T08:27:30;1.60;;;1.50;;
5900;SDS011;2976;49.764;9.796;2023-02-03T08:29:56;2.70;;;1.67;;
5900;SDS011;2976;49.764;9.796;2023-02-03T08:32:22;2.60;;;1.50;;
5900;SDS011;2976;49.764;9.796;2023-02-03T08:34:50;1.60;;;1.50;;
5900;SDS011;2976;49.764;9.796;2023-02-03T08:37:17;5.97;;;1.80;;
5900;SDS011;2976;49.764;9.796;2023-02-03T08:39:44;0.97;;;0.93;;
5900;SDS011;2976;49.764;9.796;2023-02-03T08:42:10;1.50;;;1.30;;
5900;SDS011;2976;49.764;9.796;2023-02-03T08:44:36;5.23;;;1.40;;
5900;SDS011;2976;49.764;9.796;2023-02-03T08:47:03;3.07;;;1.37;;
5900;SDS011;2976;49.764;9.796;2023-02-03T08:49:29;1.53;;;1.17;;
5900;SDS011;2976;49.764;9.796;2023-02-03T08:51:55;2.60;;;1.70;;
5900;SDS011;2976;49.764;9.796;2023-02-03T08:54:22;3.07;;;1.47;;
5900;SDS011;2976;49.764;9.796;2023-02-03T08:56:48;1.20;;;1.10;;
5900;SDS011;2976;49.764;9.796;2023-02-03T08:59:14;3.23;;;1.23;;
5900;SDS011;2976;49.764;9.796;2023-02-03T09:01:40;1.37;;;1.27;;
5900;SDS011;2976;49.764;9.796;2023-02-03T09:04:09;1.83;;;1.70;;
5900;SDS011;2976;49.764;9.796;2023-02-03T09:06:35;1.00;;;1.00;;
5900;SDS011;2976;49.764;9.796;2023-02-03T09:09:02;3.77;;;1.33;;
5900;SDS011;2976;49.764;9.796;2023-02-03T09:11:28;1.50;;;1.30;;
5900;SDS011;2976;49.764;9.796;2023-02-03T09:13:53;3.50;;;1.30;;
5900;SDS011;2976;49.764;9.796;2023-02-03T09:16:20;1.20;;;1.10;;
5900;SDS011;2976;49.764;9.796;2023-02-03T09:18:47;1.13;;;1.13;;
5900;SDS011;2976;49.764;9.796;2023-02-03T09:21:13;2.30;;;1.40;;
5900;SDS011;2976;49.764;9.796;2023-02-03T09:23:40;1.57;;;1.30;;
5900;SDS011;2976;49.764;9.796;2023-02-03T09:26:07;1.53;;;1.03;;
5900;SDS011;2976;49.764;9.796;2023-02-03T09:28:34;2.60;;;1.47;;
5900;SDS011;2976;49.764;9.796;2023-02-03T09:31:01;2.00;;;1.40;;
5900;SDS011;2976;49.764;9.796;2023-02-03T09:33:27;4.10;;;1.20;;
5900;SDS011;2976;49.764;9.796;2023-02-03T09:35:54;1.43;;;1.33;;
5900;SDS011;2976;49.764;9.796;2023-02-03T09:38:21;1.23;;;1.23;;
5900;SDS011;2976;49.764;9.796;2023-02-03T09:40:48;2.40;;;1.00;;
5900;SDS011;2976;49.764;9.796;2023-02-03T09:46:29;2.30;;;1.13;;
5900;SDS011;2976;49.764;9.796;2023-02-03T09:49:07;3.40;;;1.03;;
5900;SDS011;2976;49.764;9.796;2023-02-03T09:51:43;2.23;;;1.33;;
5900;SDS011;2976;49.764;9.796;2023-02-03T09:54:38;1.43;;;1.03;;
5900;SDS011;2976;49.764;9.796;2023-02-03T09:57:20;6.63;;;1.20;;
5900;SDS011;2976;49.764;9.796;2023-02-03T09:59:50;3.90;;;1.20;;
5900;SDS011;2976;49.764;9.796;2023-02-03T10:05:14;3.23;;;1.10;;
5900;SDS011;2976;49.764;9.796;2023-02-03T10:07:51;2.83;;;1.27;;
5900;SDS011;2976;49.764;9.796;2023-02-03T10:10:47;5.03;;;1.13;;
5900;SDS011;2976;49.764;9.796;2023-02-03T10:16:42;0.80;;;0.80;;
5900;SDS011;2976;49.764;9.796;2023-02-03T10:19:42;2.10;;;1.20;;
5900;SDS011;2976;49.764;9.796;2023-02-03T10:22:13;1.77;;;1.00;;
5900;SDS011;2976;49.764;9.796;2023-02-03T10:24:47;0.50;;;0.50;;
5900;SDS011;2976;49.764;9.796;2023-02-03T10:27:20;0.90;;;0.90;;
5900;SDS011;2976;49.764;9.796;2023-02-03T10:30:01;1.20;;;1.10;;
5900;SDS011;2976;49.764;9.796;2023-02-03T10:32:44;3.57;;;1.30;;
5900;SDS011;2976;49.764;9.796;2023-02-03T10:35:13;1.73;;;0.90;;
5900;SDS011;2976;49.764;9.796;2023-02-03T10:40:11;8.83;;;1.00;;
5900;SDS011;2976;49.764;9.796;2023-02-03T10:42:38;1.27;;;0.90;;
5900;SDS011;2976;49.764;9.796;2023-02-03T10:45:22;4.20;;;0.83;;
5900;SDS011;2976;49.764;9.796;2023-02-03T10:47:52;2.73;;;1.03;;
5900;SDS011;2976;49.764;9.796;2023-02-03T10:50:20;1.37;;;0.80;;
5900;SDS011;2976;49.764;9.796;2023-02-03T10:52:47;2.40;;;1.00;;
5900;SDS011;2976;49.764;9.796;2023-02-03T10:57:51;1.53;;;0.73;;
5900;SDS011;2976;49.764;9.796;2023-02-03T11:05:25;2.00;;;1.07;;
5900;SDS011;2976;49.764;9.796;2023-02-03T11:07:51;5.50;;;0.80;;
5900;SDS011;2976;49.764;9.796;2023-02-03T11:13:16;3.57;;;1.63;;
5900;SDS011;2976;49.764;9.796;2023-02-03T11:15:59;1.90;;;0.77;;
5900;SDS011;2976;49.764;9.796;2023-02-03T11:21:30;1.87;;;1.00;;
5900;SDS011;2976;49.764;9.796;2023-02-03T11:24:08;0.80;;;0.70;;
5900;SDS011;2976;49.764;9.796;2023-02-03T11:26:42;0.90;;;0.80;;
5900;SDS011;2976;49.764;9.796;2023-02-03T11:29:22;1.37;;;0.60;;
5900;SDS011;2976;49.764;9.796;2023-02-03T11:31:51;3.30;;;0.80;;
5900;SDS011;2976;49.764;9.796;2023-02-03T11:34:18;1.13;;;1.03;;
5900;SDS011;2976;49.764;9.796;2023-02-03T11:37:45;2.37;;;0.80;;
5900;SDS011;2976;49.764;9.796;2023-02-03T11:42:40;0.50;;;0.50;;
5900;SDS011;2976;49.764;9.796;2023-02-03T11:47:53;1.90;;;0.77;;
5900;SDS011;2976;49.764;9.796;2023-02-03T11:50:44;0.80;;;0.80;;
5900;SDS011;2976;49.764;9.796;2023-02-03T11:53:26;1.93;;;0.50;;
5900;SDS011;2976;49.764;9.796;2023-02-03T12:06:39;5.40;;;0.90;;
5900;SDS011;2976;49.764;9.796;2023-02-03T12:09:38;5.33;;;0.90;;
5900;SDS011;2976;49.764;9.796;2023-02-03T12:23:09;0.43;;;0.43;;
5900;SDS011;2976;49.764;9.796;2023-02-03T12:31:29;1.37;;;0.50;;
5900;SDS011;2976;49.764;9.796;2023-02-03T12:34:17;0.93;;;0.90;;
5900;SDS011;2976;49.764;9.796;2023-02-03T12:39:40;1.57;;;0.70;;
5900;SDS011;2976;49.764;9.796;2023-02-03T12:42:16;0.50;;;0.50;;
5900;SDS011;2976;49.764;9.796;2023-02-03T12:45:01;2.87;;;0.60;;
5900;SDS011;2976;49.764;9.796;2023-02-03T12:47:33;0.30;;;0.30;;
5900;SDS011;2976;49.764;9.796;2023-02-03T12:52:42;2.80;;;0.63;;
5900;SDS011;2976;49.764;9.796;2023-02-03T12:55:17;4.97;;;0.70;;
5900;SDS011;2976;49.764;9.796;2023-02-03T12:57:59;1.50;;;0.80;;
5900;SDS011;2976;49.764;9.796;2023-02-03T13:11:30;2.43;;;0.40;;
5900;SDS011;2976;49.764;9.796;2023-02-03T13:14:11;1.37;;;0.67;;
5900;SDS011;2976;49.764;9.796;2023-02-03T13:17:04;0.70;;;0.50;;
5900;SDS011;2976;49.764;9.796;2023-02-03T13:19:45;0.60;;;0.60;;
5900;SDS011;2976;49.764;9.796;2023-02-03T13:22:14;0.70;;;0.40;;
5900;SDS011;2976;49.764;9.796;2023-02-03T13:24:48;1.20;;;0.63;;
5900;SDS011;2976;49.764;9.796;2023-02-03T13:27:38;1.47;;;0.43;;
5900;SDS011;2976;49.764;9.796;2023-02-03T13:35:46;1.10;;;0.80;;
5900;SDS011;2976;49.764;9.796;2023-02-03T13:41:19;0.50;;;0.50;;
5900;SDS011;2976;49.764;9.796;2023-02-03T13:43:54;0.90;;;0.50;;
5900;SDS011;2976;49.764;9.796;2023-02-03T13:46:30;0.57;;;0.57;;
5900;SDS011;2976;49.764;9.796;2023-02-03T13:48:58;0.67;;;0.67;;
5900;SDS011;2976;49.764;9.796;2023-02-03T13:51:30;1.43;;;0.70;;
5900;SDS011;2976;49.764;9.796;2023-02-03T13:54:00;0.63;;;0.40;;
5900;SDS011;2976;49.764;9.796;2023-02-03T13:56:31;0.80;;;0.80;;
5900;SDS011;2976;49.764;9.796;2023-02-03T13:59:43;0.90;;;0.80;;
5900;SDS011;2976;49.764;9.796;2023-02-03T14:20:33;1.37;;;0.50;;
5900;SDS011;2976;49.764;9.796;2023-02-03T14:23:07;5.23;;;0.70;;
5900;SDS011;2976;49.764;9.796;2023-02-03T14:28:13;0.50;;;0.50;;
5900;SDS011;2976;49.764;9.796;2023-02-03T14:36:35;0.50;;;0.50;;
5900;SDS011;2976;49.764;9.796;2023-02-03T14:39:19;0.63;;;0.63;;
5900;SDS011;2976;49.764;9.796;2023-02-03T14:45:42;0.70;;;0.70;;
5900;SDS011;2976;49.764;9.796;2023-02-03T14:51:18;0.53;;;0.53;;
5900;SDS011;2976;49.764;9.796;2023-02-03T14:59:26;1.63;;;1.00;;
5900;SDS011;2976;49.764;9.796;2023-02-03T15:04:21;0.43;;;0.43;;
5900;SDS011;2976;49.764;9.796;2023-02-03T15:06:49;1.90;;;0.70;;
5900;SDS011;2976;49.764;9.796;2023-02-03T15:12:00;2.10;;;0.50;;
5900;SDS011;2976;49.764;9.796;2023-02-03T15:14:28;0.50;;;0.50;;
5900;SDS011;2976;49.764;9.796;2023-02-03T15:16:58;0.40;;;0.40;;
5900;SDS011;2976;49.764;9.796;2023-02-03T15:19:37;1.17;;;0.70;;
5900;SDS011;2976;49.764;9.796;2023-02-03T15:22:20;0.50;;;0.50;;
5900;SDS011;2976;49.764;9.796;2023-02-03T15:24:50;0.90;;;0.90;;
5900;SDS011;2976;49.764;9.796;2023-02-03T15:27:19;0.67;;;0.67;;
5900;SDS011;2976;49.764;9.796;2023-02-03T15:29:55;0.53;;;0.53;;
5900;SDS011;2976;49.764;9.796;2023-02-03T15:32:24;5.03;;;0.50;;
5900;SDS011;2976;49.764;9.796;2023-02-03T15:34:53;0.63;;;0.63;;
5900;SDS011;2976;49.764;9.796;2023-02-03T15:37:31;0.73;;;0.53;;
5900;SDS011;2976;49.764;9.796;2023-02-03T15:40:31;0.40;;;0.40;;
5900;SDS011;2976;49.764;9.796;2023-02-03T15:51:42;1.47;;;1.00;;
5900;SDS011;2976;49.764;9.796;2023-02-03T15:56:54;0.50;;;0.50;;
5900;SDS011;2976;49.764;9.796;2023-02-03T15:59:29;1.80;;;0.70;;
5900;SDS011;2976;49.764;9.796;2023-02-03T16:01:59;0.57;;;0.50;;
5900;SDS011;2976;49.764;9.796;2023-02-03T16:04:30;0.87;;;0.57;;
5900;SDS011;2976;49.764;9.796;2023-02-03T16:06:55;0.70;;;0.70;;
5900;SDS011;2976;49.764;9.796;2023-02-03T16:14:40;2.20;;;0.70;;
5900;SDS011;2976;49.764;9.796;2023-02-03T16:17:15;1.43;;;0.77;;
5900;SDS011;2976;49.764;9.796;2023-02-03T16:19:50;0.57;;;0.40;;
5900;SDS011;2976;49.764;9.796;2023-02-03T16:22:27;0.70;;;0.70;;
5900;SDS011;2976;49.764;9.796;2023-02-03T16:24:55;0.57;;;0.57;;
5900;SDS011;2976;49.764;9.796;2023-02-03T16:27:29;1.13;;;1.03;;
5900;SDS011;2976;49.764;9.796;2023-02-03T16:33:04;0.80;;;0.70;;
5900;SDS011;2976;49.764;9.796;2023-02-03T16:35:53;2.17;;;0.90;;
5900;SDS011;2976;49.764;9.796;2023-02-03T16:38:37;1.00;;;1.00;;
5900;SDS011;2976;49.764;9.796;2023-02-03T16:41:27;3.53;;;1.00;;
5900;SDS011;2976;49.764;9.796;2023-02-03T16:44:11;1.00;;;1.00;;
5900;SDS011;2976;49.764;9.796;2023-02-03T16:46:55;1.73;;;1.63;;
5900;SDS011;2976;49.764;9.796;2023-02-03T16:49:39;2.30;;;1.17;;
5900;SDS011;2976;49.764;9.796;2023-02-03T16:52:23;0.87;;;0.87;;
5900;SDS011;2976;49.764;9.796;2023-02-03T16:54:49;1.03;;;1.03;;
5900;SDS011;2976;49.764;9.796;2023-02-03T16:57:14;1.13;;;1.10;;
5900;SDS011;2976;49.764;9.796;2023-02-03T16:59:40;1.00;;;1.00;;
5900;SDS011;2976;49.764;9.796;2023-02-03T17:02:06;0.60;;;0.60;;
5900;SDS011;2976;49.764;9.796;2023-02-03T17:04:31;1.17;;;0.70;;
5900;SDS011;2976;49.764;9.796;2023-02-03T17:06:57;0.97;;;0.97;;
5900;SDS011;2976;49.764;9.796;2023-02-03T17:09:22;0.70;;;0.70;;
5900;SDS011;2976;49.764;9.796;2023-02-03T17:11:49;0.93;;;0.93;;
5900;SDS011;2976;49.764;9.796;2023-02-03T17:14:15;1.43;;;1.10;;
5900;SDS011;2976;49.764;9.796;2023-02-03T17:16:40;0.90;;;0.90;;
5900;SDS011;2976;49.764;9.796;2023-02-03T17:19:09;1.27;;;1.10;;
5900;SDS011;2976;49.764;9.796;2023-02-03T17:21:36;2.80;;;0.93;;
5900;SDS011;2976;49.764;9.796;2023-02-03T17:24:03;1.43;;;1.33;;
5900;SDS011;2976;49.764;9.796;2023-02-03T17:26:28;1.20;;;1.07;;
5900;SDS011;2976;49.764;9.796;2023-02-03T17:28:54;3.60;;;1.10;;
5900;SDS011;2976;49.764;9.796;2023-02-03T17:31:19;1.40;;;1.30;;
5900;SDS011;2976;49.764;9.796;2023-02-03T17:33:48;6.10;;;1.20;;
5900;SDS011;2976;49.764;9.796;2023-02-03T17:36:16;1.60;;;1.37;;
5900;SDS011;2976;49.764;9.796;2023-02-03T17:38:50;4.33;;;1.33;;
5900;SDS011;2976;49.764;9.796;2023-02-03T17:41:21;1.67;;;1.57;;
5900;SDS011;2976;49.764;9.796;2023-02-03T17:43:47;2.20;;;1.20;;
5900;SDS011;2976;49.764;9.796;2023-02-03T17:46:17;6.13;;;1.40;;
5900;SDS011;2976;49.764;9.796;2023-02-03T17:48:44;2.73;;;1.73;;
5900;SDS011;2976;49.764;9.796;2023-02-03T17:51:11;1.40;;;1.40;;
5900;SDS011;2976;49.764;9.796;2023-02-03T17:53:44;1.57;;;1.47;;
5900;SDS011;2976;49.764;9.796;2023-02-03T17:56:11;2.03;;;1.90;;
5900;SDS011;2976;49.764;9.796;2023-02-03T17:58:44;2.03;;;1.93;;
5900;SDS011;2976;49.764;9.796;2023-02-03T18:01:15;2.33;;;2.13;;
5900;SDS011;2976;49.764;9.796;2023-02-03T18:03:49;2.30;;;2.10;;
5900;SDS011;2976;49.764;9.796;2023-02-03T18:06:17;2.20;;;2.00;;
5900;SDS011;2976;49.764;9.796;2023-02-03T18:08:44;3.90;;;2.43;;
5900;SDS011;2976;49.764;9.796;2023-02-03T18:11:11;2.50;;;2.20;;
5900;SDS011;2976;49.764;9.796;2023-02-03T18:13:38;7.40;;;2.27;;
5900;SDS011;2976;49.764;9.796;2023-02-03T18:16:07;2.00;;;1.80;;
5900;SDS011;2976;49.764;9.796;2023-02-03T18:18:34;1.97;;;1.87;;
5900;SDS011;2976;49.764;9.796;2023-02-03T18:21:03;2.13;;;1.97;;
5900;SDS011;2976;49.764;9.796;2023-02-03T18:23:29;4.53;;;1.60;;
5900;SDS011;2976;49.764;9.796;2023-02-03T18:25:56;1.77;;;1.50;;